Time;durP1;ratioP1;P1;durP2;ratioP2;P2;SDS_P1;SDS_P2;PMS_P1;PMS_P2;Temp;Humidity;BMP_temperature;BMP_pressure;BME280_temperature;BME280_humidity;BME280_pressure;Samples;Min_cycle;Max_cycle;Signal;HPM_P1;HPM_P2
2022/06/18 00:01:17;;;;;;;4.35;2.77;;;;;;;18.53;56.74;100649.53;2095710;93;25813;-87
2022/06/18 00:05:05;;;;;;;9.55;3.17;;;;;;;18.48;56.89;100646.45;2017116;92;25855;-86
2022/06/18 00:08:53;;;;;;;7.45;3.10;;;;;;;18.42;57.15;100635.47;2014017;96;25806;-85
2022/06/18 00:16:31;;;;;;;6.67;3.17;;;;;;;18.38;57.45;100636.38;2011774;96;25699;-85
2022/06/18 00:20:09;;;;;;;5.55;3.80;;;;;;;18.34;57.35;100640.80;2012810;96;25759;-84
2022/06/18 00:23:36;;;;;;;5.70;3.62;;;;;;;18.34;57.50;100637.28;2013157;96;25513;-85
2022/06/18 00:27:17;;;;;;;7.67;3.30;;;;;;;18.38;57.58;100639.02;1984803;97;25894;-83
2022/06/18 00:30:46;;;;;;;5.45;3.60;;;;;;;18.36;57.61;100636.41;2039116;95;25782;-84
2022/06/18 00:34:13;;;;;;;7.87;4.00;;;;;;;18.30;57.75;100635.10;1964105;98;25370;-80
2022/06/18 00:37:48;;;;;;;5.65;3.52;;;;;;;18.25;57.81;100640.83;1940420;100;25716;-80
2022/06/18 00:41:32;;;;;;;;;;;;;;;;;;;;;
2022/06/18 00:45:02;;;;;;;8.35;3.95;;;;;;;18.16;58.07;100643.08;1963440;98;25705;-84
2022/06/18 00:49:17;;;;;;;10.55;3.30;;;;;;;18.14;58.21;100639.99;2011024;97;25977;-85
2022/06/18 00:53:35;;;;;;;5.70;4.00;;;;;;;18.11;58.28;100638.68;1954178;98;26380;-86
2022/06/18 00:57:28;;;;;;;3.83;3.37;;;;;;;18.07;58.45;100642.22;2002260;97;26071;-82
2022/06/18 01:01:08;;;;;;;4.28;3.87;;;;;;;18.04;58.53;100640.91;2042375;93;25448;-81
2022/06/18 01:04:59;;;;;;;;;;;;;;;;;;;;;
2022/06/18 01:08:43;;;;;;;8.98;3.83;;;;;;;17.96;58.20;100635.66;2084179;92;25953;-79
2022/06/18 01:12:32;;;;;;;4.45;3.83;;;;;;;17.90;58.39;100635.22;2128189;90;25824;-81
2022/06/18 01:16:23;;;;;;;9.28;3.70;;;;;;;17.89;58.24;100636.56;2141074;90;26469;-87
2022/06/18 01:20:00;;;;;;;5.83;4.15;;;;;;;17.96;58.26;100636.10;2063180;94;25871;-86
2022/06/18 01:23:33;;;;;;;7.00;3.98;;;;;;;17.99;58.24;100628.16;2041112;95;25712;-85
2022/06/18 01:27:12;;;;;;;4.92;3.70;;;;;;;17.96;58.18;100622.91;2031125;96;25353;-86
2022/06/18 01:30:46;;;;;;;6.30;3.75;;;;;;;17.90;58.34;100622.48;2033458;96;25522;-86
2022/06/18 01:34:16;;;;;;;4.87;3.95;;;;;;;17.89;58.50;100611.50;2031816;96;26964;-86
2022/06/18 01:37:50;;;;;;;;;;;;;;;;;;;;;
2022/06/18 01:41:51;;;;;;;6.90;3.75;;;;;;;17.79;58.53;100611.09;2002435;97;27093;-86
2022/06/18 01:45:43;;;;;;;8.35;3.85;;;;;;;17.75;58.68;100609.28;2003067;97;25728;-86
2022/06/18 01:49:09;;;;;;;5.87;4.17;;;;;;;17.66;58.86;100604.92;2027937;96;25824;-84
2022/06/18 01:52:36;;;;;;;5.83;4.55;;;;;;;17.62;59.16;100611.95;2041192;96;25491;-85
2022/06/18 01:56:19;;;;;;;9.43;4.10;;;;;;;17.59;59.23;100606.69;2040106;96;26422;-84
2022/06/18 02:00:04;;;;;;;4.53;3.40;;;;;;;17.56;59.46;100608.45;2000819;97;25792;-85
2022/06/18 02:07:34;;;;;;;6.85;4.08;;;;;;;17.46;59.66;100608.45;1974125;99;25997;-87
2022/06/18 02:11:15;;;;;;;6.50;4.17;;;;;;;17.42;59.65;100602.75;1961473;99;25849;-83
2022/06/18 02:14:45;;;;;;;;;;;;;;;17.37;59.43;100590.45;1856205;104;25886;-81
2022/06/18 02:22:41;;;;;;;;;;;;;;;17.17;59.22;100591.33;1854456;105;25953;-86
2022/06/18 02:26:27;;;;;;;7.87;3.52;;;;;;;17.09;59.12;100587.83;1828222;106;25989;-85
2022/06/18 02:30:10;;;;;;;;;;;;;;;;;;;;;
2022/06/18 02:34:09;;;;;;;6.97;3.52;;;;;;;17.04;59.23;100583.42;1839842;103;25745;-81
2022/06/18 02:37:34;;;;;;;5.95;3.75;;;;;;;17.11;59.28;100586.09;1828420;106;25404;-79
2022/06/18 02:41:07;;;;;;;6.53;3.47;;;;;;;17.13;59.37;100579.05;1895817;102;25900;-86
2022/06/18 02:44:33;;;;;;;4.30;3.37;;;;;;;17.10;58.72;100576.41;1875251;104;26014;-85
2022/06/18 02:47:59;;;;;;;5.58;3.42;;;;;;;17.04;58.48;100567.62;1886439;103;25863;-87
2022/06/18 02:51:20;;;;;;;3.15;2.85;;;;;;;17.06;58.23;100568.06;1866420;104;25895;-81
2022/06/18 02:54:51;;;;;;;5.85;3.42;;;;;;;17.06;58.13;100568.52;1884450;103;26040;-85
2022/06/18 02:58:17;;;;;;;3.90;3.50;;;;;;;17.07;58.01;100564.99;1880003;103;25807;-82
2022/06/18 03:01:57;;;;;;;4.95;3.40;;;;;;;17.10;57.98;100566.31;1859477;102;26572;-86
2022/06/18 03:05:30;;;;;;;5.20;3.35;;;;;;;17.10;57.88;100564.99;1858609;105;25711;-87
2022/06/18 03:08:50;;;;;;;7.47;3.08;;;;;;;17.05;57.96;100569.41;1837023;107;25879;-86
2022/06/18 03:12:17;;;;;;;4.17;3.15;;;;;;;16.98;58.10;100570.70;1852566;104;25774;-86
2022/06/18 03:15:57;;;;;;;6.10;3.52;;;;;;;16.99;58.19;100580.80;1945512;99;25859;-86
2022/06/18 03:19:57;;;;;;;;;;;;;;;;;;;;;
2022/06/18 03:23:23;;;;;;;3.50;2.62;;;;;;;17.07;58.11;100581.67;1958543;98;25865;-87
2022/06/18 03:26:51;;;;;;;5.25;2.70;;;;;;;17.11;57.89;100584.77;1979479;97;25852;-85
2022/06/18 03:30:24;;;;;;;3.87;2.60;;;;;;;17.11;57.91;100581.23;1988025;98;25404;-87
2022/06/18 03:34:08;;;;;;;4.03;2.72;;;;;;;17.18;57.87;100590.92;1970849;98;26132;-85
2022/06/18 03:37:56;;;;;;;4.35;2.70;;;;;;;17.26;57.69;100596.17;1980371;98;25847;-85
2022/06/18 03:41:22;;;;;;;3.60;2.85;;;;;;;17.39;57.56;100589.58;1978558;98;25751;-82
2022/06/18 03:44:44;;;;;;;6.83;3.00;;;;;;;17.56;57.28;100586.92;2011768;91;25969;-86
2022/06/18 03:48:26;;;;;;;4.25;2.50;;;;;;;17.57;57.16;100580.75;2120859;92;25967;-82
2022/06/18 03:52:03;;;;;;;2.55;2.17;;;;;;;17.55;56.96;100577.67;2139854;92;25879;-84
2022/06/18 03:55:34;;;;;;;4.25;2.72;;;;;;;17.55;56.84;100584.27;2130865;90;25836;-85
2022/06/18 03:58:55;;;;;;;3.22;2.50;;;;;;;17.59;56.90;100577.69;2136227;90;25754;-84
2022/06/18 04:02:19;;;;;;;4.25;2.33;;;;;;;17.65;56.79;100578.09;2171233;89;25688;-83
2022/06/18 04:05:46;;;;;;;3.33;2.27;;;;;;;17.73;56.74;100573.70;2170640;89;26117;-85
2022/06/18 04:09:22;;;;;;;4.22;2.65;;;;;;;17.81;56.51;100579.84;2167017;89;25667;-84
2022/06/18 04:13:03;;;;;;;3.45;2.33;;;;;;;17.88;56.37;100579.39;2173413;89;26589;-84
2022/06/18 04:16:42;;;;;;;11.00;2.65;;;;;;;18.02;56.24;100575.39;2156725;89;25743;-85
2022/06/18 04:20:36;;;;;;;4.97;2.85;;;;;;;18.18;56.05;100579.27;2153139;89;25826;-85
2022/06/18 04:24:08;;;;;;;6.20;2.33;;;;;;;18.40;55.65;100588.42;2176272;89;25719;-85
2022/06/18 04:27:42;;;;;;;4.97;1.98;;;;;;;18.67;55.31;100590.03;2172838;89;25827;-83
2022/06/18 04:31:07;;;;;;;4.45;2.67;;;;;;;18.84;54.82;100593.47;2172606;89;25808;-83
2022/06/18 04:34:37;;;;;;;4.92;3.27;;;;;;;18.97;54.80;100588.11;2170241;88;25769;-81
2022/06/18 04:38:28;;;;;;;7.12;1.80;;;;;;;19.09;54.69;100581.39;2164585;89;25795;-85
2022/06/18 04:42:29;;;;;;;7.22;2.60;;;;;;;19.20;54.28;100587.45;2150090;89;25784;-85
2022/06/18 04:46:19;;;;;;;9.13;1.95;;;;;;;19.28;53.93;100581.67;2173244;89;25679;-85
2022/06/18 04:50:42;;;;;;;2.67;1.60;;;;;;;19.26;53.62;100579.47;2171411;89;34990;-85
2022/06/18 04:59:20;;;;;;;3.67;1.60;;;;;;;19.24;53.34;100572.02;2123798;92;26187;-85
2022/06/18 05:03:21;;;;;;;4.05;1.60;;;;;;;19.35;53.31;100575.88;2125860;92;25462;-85
2022/06/18 05:07:30;;;;;;;4.85;1.80;;;;;;;19.42;53.10;100570.96;2133351;92;25978;-81
2022/06/18 05:11:18;;;;;;;4.80;1.50;;;;;;;19.48;52.88;100569.59;2120051;92;25807;-84
2022/06/18 05:15:22;;;;;;;5.85;1.42;;;;;;;19.69;52.97;100571.61;2148678;90;25730;-82
2022/06/18 05:18:49;;;;;;;3.20;1.20;;;;;;;19.83;52.63;100563.07;2141671;90;25693;-85
2022/06/18 05:22:21;;;;;;;4.92;1.20;;;;;;;19.89;52.32;100569.62;2172182;90;25979;-85
2022/06/18 05:26:09;;;;;;;1.45;1.10;;;;;;;19.93;52.11;100575.75;2167549;90;25811;-83
2022/06/18 05:29:57;;;;;;;;;;;;;;;;;;;;;
2022/06/18 05:33:27;;;;;;;1.47;1.07;;;;;;;20.02;51.17;100564.61;2050762;94;26288;-80
2022/06/18 05:37:30;;;;;;;2.72;1.20;;;;;;;20.12;51.33;100569.80;2028061;96;25812;-81
2022/06/18 05:41:13;;;;;;;8.95;1.27;;;;;;;20.24;50.87;100570.94;1987229;99;25983;-82
2022/06/18 05:44:42;;;;;;;2.20;1.12;;;;;;;20.34;50.42;100567.73;1962337;98;26459;-82
2022/06/18 05:48:24;;;;;;;4.35;1.22;;;;;;;20.41;50.29;100557.48;1970604;99;25697;-80
2022/06/18 05:52:03;;;;;;;5.40;1.60;;;;;;;20.53;50.50;100557.80;1940783;99;25962;-74
2022/06/18 06:00:41;;;;;;;7.30;1.55;;;;;;;21.02;50.25;100571.15;1980219;98;25384;-82
2022/06/18 06:04:22;;;;;;;3.65;1.00;;;;;;;21.37;49.91;100564.42;1942927;95;25799;-82
2022/06/18 06:07:50;;;;;;;2.02;0.95;;;;;;;21.67;49.40;100570.48;1935636;101;31090;-82
2022/06/18 06:11:28;;;;;;;4.33;1.40;;;;;;;21.86;48.46;100568.33;1972803;97;25855;-85
2022/06/18 06:15:00;;;;;;;1.82;0.95;;;;;;;21.99;48.09;100565.44;2010433;98;26016;-84
2022/06/18 06:18:29;;;;;;;3.12;1.00;;;;;;;22.13;47.70;100566.89;2000363;97;25793;-86
2022/06/18 06:21:53;;;;;;;5.17;1.15;;;;;;;22.37;47.75;100561.99;2008790;95;25566;-84
2022/06/18 06:25:32;;;;;;;4.50;1.12;;;;;;;22.55;46.45;100567.38;2018999;96;25748;-86
2022/06/18 06:29:00;;;;;;;2.08;1.00;;;;;;;22.65;46.13;100563.59;2020743;96;26147;-84
2022/06/18 06:32:28;;;;;;;2.83;1.00;;;;;;;22.85;46.73;100564.45;1999262;95;26460;-85
2022/06/18 06:35:51;;;;;;;2.37;0.72;;;;;;;23.23;46.59;100556.88;2056371;95;26022;-85
2022/06/18 06:39:28;;;;;;;9.60;1.82;;;;;;;23.46;44.94;100557.61;2065298;93;25763;-84
2022/06/18 06:42:59;;;;;;;10.20;1.12;;;;;;;23.48;45.30;100553.09;2090758;93;25880;-84
2022/06/18 06:46:27;;;;;;;2.83;0.88;;;;;;;23.77;45.03;100539.49;2084084;93;26018;-80
2022/06/18 06:49:48;;;;;;;20.50;2.45;;;;;;;23.92;44.25;100538.17;2108300;93;25887;-83
2022/06/18 06:53:22;;;;;;;4.72;1.00;;;;;;;24.06;44.18;100536.43;2099418;93;25659;-84
2022/06/18 07:00:37;;;;;;;4.50;0.80;;;;;;;24.59;43.57;100530.81;2101963;94;25910;-86
2022/06/18 07:04:05;;;;;;;12.50;1.25;;;;;;;24.82;42.65;100531.87;2100152;94;26149;-81
2022/06/18 07:07:50;;;;;;;9.23;1.00;;;;;;;25.12;42.60;100526.88;2099733;94;25786;-82
2022/06/18 07:15:03;;;;;;;4.50;1.30;;;;;;;25.75;42.59;100524.66;1995295;97;25990;-87
2022/06/18 07:18:42;;;;;;;9.23;1.07;;;;;;;26.20;41.69;100529.21;2066553;94;25921;-93
2022/06/18 07:22:10;;;;;;;2.42;0.90;;;;;;;26.66;41.25;100534.55;2076998;94;27066;-87
2022/06/18 07:25:57;;;;;;;;;;;;;;;;;;;;;
2022/06/18 07:29:20;;;;;;;4.50;1.10;;;;;;;27.44;39.90;100529.50;2045644;95;25775;-83
2022/06/18 07:33:07;;;;;;;4.55;1.20;;;;;;;27.88;38.80;100528.48;2059959;95;25751;-86
2022/06/18 07:36:40;;;;;;;1.02;0.80;;;;;;;27.87;38.00;100521.36;2060180;94;25714;-82
2022/06/18 07:40:04;;;;;;;3.10;0.90;;;;;;;28.00;37.41;100526.08;2053263;94;25768;-83
2022/06/18 07:43:39;;;;;;;1.90;0.90;;;;;;;28.07;37.57;100521.30;2069996;94;25832;-82
2022/06/18 07:47:18;;;;;;;6.15;1.12;;;;;;;28.34;37.42;100524.96;2188307;88;26364;-89
2022/06/18 07:50:50;;;;;;;4.90;0.90;;;;;;;28.51;37.17;100534.44;2205319;88;25415;-83
2022/06/18 07:54:19;;;;;;;7.33;1.35;;;;;;;28.60;36.88;100524.61;2198283;88;25757;-84
2022/06/18 07:57:43;;;;;;;3.75;1.20;;;;;;;28.73;36.59;100525.36;2175782;89;25488;-84
2022/06/18 08:01:23;;;;;;;8.23;1.17;;;;;;;28.82;36.38;100524.42;2215643;87;25748;-83
2022/06/18 08:04:42;;;;;;;1.47;1.00;;;;;;;28.78;35.82;100530.00;2214565;88;25795;-83
2022/06/18 08:08:09;;;;;;;3.98;1.15;;;;;;;28.58;35.30;100535.00;2213386;88;25601;-81
2022/06/18 08:11:35;;;;;;;3.47;1.00;;;;;;;28.24;35.37;100531.23;2222223;87;25764;-78
2022/06/18 08:15:01;;;;;;;3.72;1.10;;;;;;;28.20;35.86;100533.66;2216522;86;25697;-82
2022/06/18 08:18:25;;;;;;;5.15;1.17;;;;;;;28.22;36.19;100532.66;2223247;88;25583;-83
2022/06/18 08:21:53;;;;;;;4.12;1.02;;;;;;;28.33;36.08;100536.16;2227036;87;25812;-79
2022/06/18 08:25:24;;;;;;;1.77;0.90;;;;;;;28.44;36.05;100533.00;2211747;88;25219;-83
2022/06/18 08:28:58;;;;;;;2.90;1.30;;;;;;;28.48;35.96;100538.59;2198757;88;25906;-84
2022/06/18 08:32:20;;;;;;;3.47;0.95;;;;;;;28.47;35.80;100531.51;2207137;88;25790;-84
2022/06/18 08:35:44;;;;;;;1.50;0.97;;;;;;;28.34;34.91;100535.21;2219058;87;25657;-80
2022/06/18 08:39:09;;;;;;;3.12;1.10;;;;;;;27.76;34.71;100520.04;2216355;88;26094;-84
2022/06/18 08:42:55;;;;;;;1.17;0.88;;;;;;;27.67;35.40;100520.41;2209978;88;25739;-85
2022/06/18 08:47:03;;;;;;;4.85;1.32;;;;;;;27.68;35.65;100512.80;2194030;88;25667;-82
2022/06/18 08:51:06;;;;;;;1.95;1.07;;;;;;;27.77;35.36;100511.53;2196961;89;25966;-83
2022/06/18 08:54:58;;;;;;;3.00;1.45;;;;;;;27.91;35.41;100509.11;2182156;89;25712;-87
2022/06/18 08:58:36;;;;;;;5.90;1.32;;;;;;;27.94;35.30;100511.62;2180330;89;25817;-81
2022/06/18 09:02:07;;;;;;;2.17;1.10;;;;;;;27.89;34.19;100506.09;2198819;89;25310;-87
2022/06/18 09:05:53;;;;;;;1.95;0.90;;;;;;;27.33;34.90;100510.34;2161612;91;25809;-86
2022/06/18 09:09:29;;;;;;;3.27;1.00;;;;;;;27.23;34.95;100500.97;2152661;90;26765;-87
2022/06/18 09:12:58;;;;;;;2.55;1.10;;;;;;;27.37;35.38;100495.01;2153823;91;26098;-85
2022/06/18 09:16:24;;;;;;;1.55;1.02;;;;;;;27.21;35.29;100496.17;2127621;91;25400;-87
2022/06/18 09:20:10;;;;;;;5.33;1.10;;;;;;;27.17;35.64;100491.86;2154120;91;25891;-82
2022/06/18 09:23:42;;;;;;;2.17;1.12;;;;;;;27.29;35.41;100488.66;2134441;91;25701;-83
2022/06/18 09:27:08;;;;;;;1.85;0.95;;;;;;;27.52;35.19;100486.30;2138413;91;25885;-82
2022/06/18 09:31:14;;;;;;;5.05;0.90;;;;;;;27.39;34.80;100485.11;2154935;91;25688;-77
2022/06/18 09:35:40;;;;;;;4.67;1.42;;;;;;;27.65;35.22;100472.77;2126458;91;25821;-86
2022/06/18 09:39:29;;;;;;;;;;;;;;;;;;;;;
2022/06/18 09:42:50;;;;;;;4.03;0.90;;;;;;;28.09;33.86;100464.48;2158471;89;25685;-83
2022/06/18 09:46:53;;;;;;;1.90;0.82;;;;;;;28.12;34.08;100464.34;2168298;89;25836;-83
2022/06/18 09:51:00;;;;;;;2.37;0.98;;;;;;;28.13;34.04;100455.34;2139236;91;25908;-86
2022/06/18 09:54:23;;;;;;;2.08;0.98;;;;;;;28.44;33.52;100456.09;2147878;89;26455;-86
2022/06/18 09:57:53;;;;;;;0.93;0.90;;;;;;;28.58;32.99;100447.35;2185016;89;25865;-86
2022/06/18 10:02:00;;;;;;;;;;;;;;;;;;;;;
2022/06/18 10:09:43;;;;;;;1.70;0.90;;;;;;;29.44;32.60;100426.83;2186134;89;25745;-86
2022/06/18 10:13:18;;;;;;;7.92;1.37;;;;;;;29.33;31.32;100427.86;2183218;89;25791;-85
2022/06/18 10:17:15;;;;;;;;;;;;;;;;;;;;;
2022/06/18 10:21:08;;;;;;;2.47;1.40;;;;;;;28.97;32.32;100411.39;2179957;89;25810;-83
2022/06/18 10:30:02;;;;;;;2.77;1.40;;;;;;;29.67;31.44;100406.80;2113218;91;25818;-86
2022/06/18 10:34:28;;;;;;;;;;;;;;;;;;;;;
2022/06/18 10:43:22;;;;;;;;;;;;;;;;;;;;;
2022/06/18 10:47:15;;;;;;;6.85;0.90;;;;;;;29.78;30.40;100396.30;1890517;102;26011;-86
2022/06/18 10:51:14;;;;;;;;;;;;;;;;;;;;;
2022/06/18 10:54:48;;;;;;;2.92;1.05;;;;;;;29.45;30.80;100384.71;1830912;105;25892;-85
2022/06/18 10:58:53;;;;;;;3.22;1.15;;;;;;;29.50;30.82;100385.31;1831726;107;26011;-85
2022/06/18 11:03:09;;;;;;;1.15;0.90;;;;;;;29.55;30.78;100387.28;1790024;108;26534;-82
2022/06/18 11:06:57;;;;;;;1.32;1.00;;;;;;;29.27;31.18;100381.22;1738730;108;25479;-85
2022/06/18 11:10:44;;;;;;;2.15;0.85;;;;;;;29.16;31.34;100364.35;1694765;114;26023;-86
2022/06/18 11:14:20;;;;;;;8.18;1.20;;;;;;;29.40;31.87;100371.55;1726614;114;25980;-84
2022/06/18 11:17:49;;;;;;;1.02;0.80;;;;;;;29.61;31.18;100366.83;1726392;113;26559;-86
2022/06/18 11:21:31;;;;;;;3.10;0.80;;;;;;;29.49;31.12;100362.95;1727241;114;25921;-87
2022/06/18 11:25:30;;;;;;;3.12;1.32;;;;;;;29.20;31.30;100363.23;1741301;109;25973;-86
2022/06/18 11:29:40;;;;;;;2.12;0.90;;;;;;;29.29;31.86;100357.81;1767596;109;26004;-83
2022/06/18 11:33:59;;;;;;;;;;;;;;;;;;;;;
2022/06/18 11:37:42;;;;;;;2.30;1.02;;;;;;;30.03;30.63;100362.65;1833520;103;25581;-87
2022/06/18 11:41:22;;;;;;;1.42;0.80;;;;;;;30.31;30.79;100356.09;1880200;103;25827;-87
2022/06/18 11:55:02;;;;;;;2.40;1.00;;;;;;;31.70;29.25;100343.09;1859236;104;25791;-88
2022/06/18 11:59:07;;;;;;;;;;;;;;;;;;;;;
2022/06/18 12:03:02;;;;;;;4.03;1.20;;;;;;;32.06;28.65;100320.92;1890579;97;26021;-79
2022/06/18 12:07:06;;;;;;;1.90;0.70;;;;;;;32.26;28.15;100320.07;1977611;97;26075;-81
2022/06/18 12:10:39;;;;;;;2.42;1.10;;;;;;;32.32;27.83;100307.03;2008602;98;25781;-84
2022/06/18 12:14:32;;;;;;;2.47;0.93;;;;;;;32.56;27.40;100297.76;2079224;92;26358;-80
2022/06/18 12:18:01;;;;;;;1.77;0.90;;;;;;;32.56;27.69;100303.64;2077644;93;25777;-84
2022/06/18 12:21:45;;;;;;;2.45;0.80;;;;;;;32.64;27.27;100295.41;2125164;90;25898;-83
2022/06/18 12:25:44;;;;;;;2.62;0.90;;;;;;;32.36;26.79;100293.70;2159127;90;25690;-83
2022/06/18 12:29:49;;;;;;;1.50;0.82;;;;;;;31.50;26.75;100284.61;2167919;90;25741;-87
2022/06/18 12:33:31;;;;;;;2.80;0.75;;;;;;;30.79;27.44;100269.36;2173229;90;25829;-84
2022/06/18 12:37:55;;;;;;;2.45;0.65;;;;;;;30.41;27.88;100262.28;2158494;90;25886;-85
2022/06/18 12:41:50;;;;;;;2.05;0.75;;;;;;;30.22;28.46;100261.17;2139221;90;25733;-83
2022/06/18 12:45:59;;;;;;;7.35;1.10;;;;;;;30.02;28.75;100254.74;2062942;94;25755;-83
2022/06/18 12:49:45;;;;;;;4.78;0.90;;;;;;;29.94;29.18;100241.77;2078799;93;25828;-85
2022/06/18 12:53:47;;;;;;;4.72;1.22;;;;;;;30.00;29.64;100230.63;2045605;94;25928;-82
2022/06/18 12:57:54;;;;;;;2.52;1.20;;;;;;;30.18;29.62;100239.91;2057555;93;25833;-85
2022/06/18 13:01:38;;;;;;;1.25;0.93;;;;;;;29.89;29.62;100237.98;2077024;93;26267;-87
2022/06/18 13:05:37;;;;;;;;;;;;;;;29.69;29.69;100223.98;2078063;93;25906;-86
2022/06/18 13:09:45;;;;;;;4.92;1.42;;;;;;;29.54;29.75;100223.90;2076948;94;26562;-85
2022/06/18 13:13:53;;;;;;;1.80;1.05;;;;;;;29.42;29.89;100213.37;2078174;94;25886;-81
2022/06/18 13:17:36;;;;;;;5.47;1.00;;;;;;;29.52;29.84;100212.37;2077091;93;26405;-83
2022/06/18 13:21:11;;;;;;;4.15;1.05;;;;;;;29.80;29.60;100200.03;2039493;93;25864;-84
2022/06/18 13:28:29;;;;;;;3.35;0.93;;;;;;;30.13;29.43;100185.91;2092604;93;25902;-86
2022/06/18 13:32:13;;;;;;;1.20;0.87;;;;;;;30.08;29.13;100188.03;2128155;91;26342;-81
2022/06/18 13:36:20;;;;;;;1.65;0.98;;;;;;;30.18;29.71;100186.14;2111898;91;25913;-82
2022/06/18 13:40:21;;;;;;;5.30;1.30;;;;;;;30.42;29.59;100184.65;2102664;92;25995;-85
2022/06/18 13:44:28;;;;;;;2.20;1.00;;;;;;;30.09;29.36;100181.69;2108490;92;25917;-81
2022/06/18 13:47:57;;;;;;;2.65;0.80;;;;;;;29.66;29.96;100168.61;2108599;92;26299;-80
2022/06/18 13:51:29;;;;;;;7.20;1.00;;;;;;;29.72;30.23;100168.73;2072998;93;25699;-83
2022/06/18 13:54:52;;;;;;;9.90;1.70;;;;;;;29.82;30.13;100161.85;2071944;94;25731;-85
2022/06/18 13:58:26;;;;;;;1.70;0.80;;;;;;;30.01;30.14;100152.21;2065635;93;25481;-84
2022/06/18 14:02:06;;;;;;;1.40;0.90;;;;;;;30.01;29.94;100148.18;2058660;94;25748;-86
2022/06/18 14:05:52;;;;;;;1.32;0.72;;;;;;;29.81;29.69;100146.22;2053148;94;25772;-85
2022/06/18 14:09:13;;;;;;;2.17;0.98;;;;;;;29.41;30.29;100138.28;2060426;94;25817;-88
2022/06/18 14:12:45;;;;;;;3.10;1.10;;;;;;;29.03;30.70;100149.89;2062184;94;25875;-85
2022/06/18 14:16:06;;;;;;;1.37;0.82;;;;;;;28.60;30.97;100147.73;2071124;91;26008;-85
2022/06/18 14:19:35;;;;;;;4.83;1.02;;;;;;;28.54;31.22;100132.45;2072261;94;25724;-85
2022/06/18 14:23:04;;;;;;;1.98;1.20;;;;;;;28.44;31.47;100137.45;2071541;94;25802;-82
2022/06/18 14:26:25;;;;;;;1.57;0.90;;;;;;;28.50;31.71;100134.92;2073193;94;25686;-86
2022/06/18 14:29:48;;;;;;;3.52;0.95;;;;;;;28.46;31.80;100134.22;2073204;94;25794;-82
2022/06/18 14:33:40;;;;;;;1.30;1.00;;;;;;;28.40;32.09;100127.85;2023794;95;25927;-83
2022/06/18 14:37:14;;;;;;;1.77;0.90;;;;;;;28.48;32.23;100122.92;1982217;97;25761;-80
2022/06/18 14:44:46;;;;;;;5.08;0.82;;;;;;;28.50;32.19;100120.17;2010727;97;25634;-84
2022/06/18 14:48:49;;;;;;;2.67;1.07;;;;;;;28.52;32.05;100120.48;2061759;93;25731;-84
2022/06/18 14:52:33;;;;;;;1.62;0.93;;;;;;;28.53;31.59;100119.53;2054277;95;26015;-84
2022/06/18 14:56:41;;;;;;;1.15;1.00;;;;;;;28.63;31.54;100126.11;2008596;96;26017;-83
2022/06/18 15:00:39;;;;;;;1.10;1.00;;;;;;;28.59;31.31;100117.85;1950044;100;25785;-82
2022/06/18 15:04:14;;;;;;;3.62;0.80;;;;;;;28.58;31.71;100113.90;1928894;100;25950;-84
2022/06/18 15:07:38;;;;;;;5.12;1.05;;;;;;;28.76;31.80;100110.21;1921094;100;25964;-82
2022/06/18 15:11:03;;;;;;;6.17;1.05;;;;;;;29.01;31.65;100102.99;1945946;100;25882;-82
2022/06/18 15:14:33;;;;;;;4.00;1.10;;;;;;;28.95;31.39;100101.48;1928199;100;25377;-83
2022/06/18 15:26:36;;;;;;;7.80;1.35;;;;;;;28.71;31.56;100088.13;1967857;98;25872;-86
2022/06/18 15:31:06;;;;;;;2.85;1.57;;;;;;;28.80;31.51;100087.61;2009825;94;25427;-84
2022/06/18 15:35:34;;;;;;;4.15;1.40;;;;;;;28.78;31.57;100085.96;2090553;90;26491;-84
2022/06/18 15:39:30;;;;;;;6.12;1.42;;;;;;;28.71;31.58;100076.91;2174504;90;25771;-84
2022/06/18 15:47:21;;;;;;;;;;;;;;;;;;;;;
2022/06/18 15:55:10;;;;;;;8.25;1.95;;;;;;;28.56;32.00;100056.34;1872298;104;25776;-85
2022/06/18 15:58:51;;;;;;;4.87;1.98;;;;;;;28.47;32.17;100051.48;1866129;104;25919;-87
2022/06/18 16:02:35;;;;;;;3.15;1.77;;;;;;;28.46;32.02;100058.66;1870246;104;26018;-86
2022/06/18 16:06:42;;;;;;;3.80;2.72;;;;;;;28.49;32.06;100065.68;1869677;104;25863;-90
2022/06/18 16:10:16;;;;;;;4.87;1.85;;;;;;;28.49;31.97;100057.64;1862291;105;25931;-93
2022/06/18 16:14:30;;;;;;;6.70;2.17;;;;;;;28.45;32.09;100065.44;1831292;105;25906;-95
2022/06/18 16:18:50;;;;;;;1.90;1.72;;;;;;;28.34;32.37;100059.78;1844048;104;25736;-92
2022/06/18 16:31:16;;;;;;;;;;;;;;;;;;;;;
2022/06/18 16:40:14;;;;;;;2.62;1.52;;;;;;;27.89;33.18;100024.69;1758044;110;25973;-93
2022/06/18 16:48:50;;;;;;;2.00;1.55;;;;;;;27.83;33.55;100016.97;1784574;108;25964;-88
2022/06/18 17:03:42;;;;;;;2.40;1.40;;;;;;;27.75;33.95;100017.36;1726675;108;25404;-93
2022/06/18 17:32:32;;;;;;;4.20;1.40;;;;;;;27.54;34.45;100006.45;1670310;116;25687;-95
2022/06/18 17:37:10;;;;;;;3.45;1.07;;;;;;;27.51;34.51;100006.61;1657646;117;26027;-94
2022/06/18 17:41:14;;;;;;;2.30;1.40;;;;;;;27.51;34.61;100001.26;1633039;119;25942;-93
2022/06/18 17:55:35;;;;;;;;;;;;;;;;;;;;;
2022/06/18 18:00:03;;;;;;;1.55;1.22;;;;;;;27.24;35.22;99984.34;1599235;121;26099;-93
2022/06/18 18:23:43;;;;;;;;;;;;;;;;;;;;;
2022/06/18 18:27:57;;;;;;;;;;;;;;;;;;;;;
2022/06/18 18:51:42;;;;;;;8.98;1.50;;;;;;;26.74;36.63;99974.84;1567642;116;25644;-93
2022/06/18 18:59:59;;;;;;;;;;;;;;;;;;;;;
2022/06/18 19:03:59;;;;;;;;;;;;;;;;;;;;;
2022/06/18 19:07:37;;;;;;;3.70;1.77;;;;;;;26.52;37.32;99975.02;1628074;117;26736;-82
2022/06/18 19:11:12;;;;;;;6.53;2.47;;;;;;;26.46;37.51;99977.50;1658906;117;26027;-82
2022/06/18 19:14:41;;;;;;;;;;;;;;;26.31;37.78;99983.09;1663768;113;26052;-81
2022/06/18 19:18:30;;;;;;;8.00;1.95;;;;;;;26.19;38.27;99977.02;1730082;109;25923;-81
2022/06/18 19:22:11;;;;;;;7.22;2.75;;;;;;;25.93;38.81;99977.38;1760713;109;32689;-83
2022/06/18 19:25:55;;;;;;;3.00;2.20;;;;;;;25.80;39.02;99980.59;1774579;109;25820;-83
2022/06/18 19:29:19;;;;;;;10.00;2.65;;;;;;;25.67;39.44;99980.72;1765829;110;25501;-87
2022/06/18 19:33:06;;;;;;;3.80;2.37;;;;;;;25.55;39.84;99982.59;1778376;110;25945;-86
2022/06/18 19:36:28;;;;;;;7.90;2.17;;;;;;;25.48;40.17;99983.80;1777085;111;25947;-86
2022/06/18 19:39:51;;;;;;;7.08;2.33;;;;;;;25.41;40.44;99989.88;1780082;109;26698;-79
2022/06/18 19:43:13;;;;;;;9.00;2.55;;;;;;;25.32;40.73;99983.16;1830549;106;25899;-87
2022/06/18 19:46:34;;;;;;;5.03;2.27;;;;;;;25.28;40.94;99990.01;1839758;106;25892;-85
2022/06/18 19:49:56;;;;;;;4.17;1.92;;;;;;;25.20;41.34;99983.20;1839038;107;25917;-85
2022/06/18 19:53:18;;;;;;;7.95;2.87;;;;;;;25.12;41.65;99981.82;1848241;104;26039;-85
2022/06/18 19:56:39;;;;;;;12.43;2.47;;;;;;;25.06;41.69;99973.56;1841165;104;26032;-85
2022/06/18 20:00:00;;;;;;;2.92;1.90;;;;;;;25.01;42.05;99975.58;1850276;104;26028;-86
2022/06/18 20:03:31;;;;;;;9.45;2.17;;;;;;;24.90;42.35;99968.01;1849285;105;25848;-86
2022/06/18 20:07:16;;;;;;;2.70;2.02;;;;;;;24.78;42.71;99968.54;1864451;100;43693;-83
2022/06/18 20:10:46;;;;;;;3.22;2.30;;;;;;;24.67;43.08;99962.77;1947729;100;25307;-84
2022/06/18 20:14:18;;;;;;;5.97;2.45;;;;;;;24.56;43.35;99955.21;1946979;100;25878;-88
2022/06/18 20:17:57;;;;;;;5.75;2.33;;;;;;;24.49;43.63;99955.92;1937198;100;26519;-88
2022/06/18 20:21:23;;;;;;;3.98;2.22;;;;;;;24.43;44.03;99958.83;1957034;100;25924;-84
2022/06/18 20:24:58;;;;;;;3.30;2.40;;;;;;;24.30;44.58;99949.59;1956023;99;25855;-86
2022/06/18 20:28:23;;;;;;;3.95;2.55;;;;;;;24.17;44.74;99954.53;1960633;99;26601;-84
2022/06/18 20:31:44;;;;;;;3.30;2.58;;;;;;;24.10;45.07;99960.13;1955609;99;25906;-85
2022/06/18 20:35:38;;;;;;;3.50;2.37;;;;;;;24.01;45.59;99953.39;1918284;101;25697;-89
2022/06/18 20:39:13;;;;;;;3.83;1.82;;;;;;;23.88;45.65;99950.31;1888435;103;25880;-81
2022/06/18 20:43:02;;;;;;;10.18;2.87;;;;;;;23.82;45.70;99943.89;1876297;102;26366;-87
2022/06/18 20:47:09;;;;;;;5.47;3.00;;;;;;;23.76;45.86;99950.80;1885046;102;25854;-88
2022/06/18 20:50:34;;;;;;;4.42;2.30;;;;;;;23.73;46.05;99948.25;1888260;102;25800;-87
2022/06/18 20:57:44;;;;;;;3.60;2.47;;;;;;;23.55;46.69;99943.09;1876313;104;26241;-88
2022/06/18 21:01:16;;;;;;;3.67;2.22;;;;;;;23.49;46.72;99946.88;1862509;104;25878;-86
2022/06/18 21:04:37;;;;;;;6.67;2.17;;;;;;;23.46;47.03;99936.80;1861093;104;25928;-83